Time;durP1;ratioP1;P1;durP2;ratioP2;P2;SDS_P1;SDS_P2;PMS_P1;PMS_P2;Temp;Humidity;BMP_temperature;BMP_pressure;BME280_temperature;BME280_humidity;BME280_pressure;Samples;Min_cycle;Max_cycle;Signal;HPM_P1;HPM_P2
2023/03/15 00:01:07;;;;;;;20.20;18.50;;;;;;;5.20;90.04;96583.47;109397;1293;22975;-86
2023/03/15 00:03:36;;;;;;;18.10;16.70;;;;;;;5.12;90.59;96594.73;109427;1286;22173;-86
2023/03/15 00:06:04;;;;;;;16.80;15.50;;;;;;;5.02;90.97;96587.25;109555;1293;22198;-86
2023/03/15 00:08:33;;;;;;;14.90;13.70;;;;;;;4.92;90.88;96595.35;109489;1293;22921;-86
2023/03/15 00:11:01;;;;;;;17.50;16.10;;;;;;;4.90;91.35;96613.95;109246;1294;22151;-84
2023/03/15 00:13:29;;;;;;;16.50;15.10;;;;;;;4.83;91.25;96632.60;109256;1293;22248;-86
2023/03/15 00:15:59;;;;;;;14.50;13.30;;;;;;;4.72;91.02;96632.02;109170;1293;22969;-85
2023/03/15 00:18:28;;;;;;;14.60;13.40;;;;;;;4.64;90.47;96657.73;109155;1293;22999;-84
2023/03/15 00:20:57;;;;;;;16.60;15.30;;;;;;;4.52;90.16;96671.66;109485;1293;22194;-86
2023/03/15 00:23:25;;;;;;;15.70;14.30;;;;;;;4.42;90.28;96681.23;109522;1293;22162;-84
2023/03/15 00:25:54;;;;;;;13.50;12.40;;;;;;;4.35;90.17;96690.29;109518;1289;22335;-86
2023/03/15 00:28:22;;;;;;;14.30;13.10;;;;;;;4.29;90.23;96702.27;109428;1293;22117;-85
2023/03/15 00:31:06;;;;;;;16.40;15.00;;;;;;;4.23;90.74;96713.50;109187;1294;22258;-85
2023/03/15 00:33:35;;;;;;;16.10;14.80;;;;;;;4.13;90.78;96713.83;109207;1293;22290;-87
2023/03/15 00:36:05;;;;;;;14.50;13.40;;;;;;;4.07;90.99;96722.45;109313;1293;22149;-88
2023/03/15 00:38:35;;;;;;;11.90;10.90;;;;;;;4.03;91.01;96739.42;109336;1293;22981;-88
2023/03/15 00:41:12;;;;;;;15.00;13.70;;;;;;;3.97;91.04;96751.77;109185;1293;22271;-89
2023/03/15 00:43:41;;;;;;;13.30;12.30;;;;;;;3.98;91.03;96771.65;109082;1293;22406;-88
2023/03/15 00:46:10;;;;;;;9.80;9.00;;;;;;;3.92;90.65;96793.92;109187;1293;22269;-89
2023/03/15 00:48:39;;;;;;;5.30;4.60;;;;;;;3.84;90.50;96810.76;109295;1293;22244;-87
2023/03/15 00:51:15;;;;;;;6.50;5.10;;;;;;;3.76;90.22;96807.75;109188;1294;22196;-90
2023/03/15 00:53:45;;;;;;;5.00;4.50;;;;;;;3.70;89.81;96813.02;109308;1293;22242;-89
2023/03/15 00:56:19;;;;;;;4.60;4.20;;;;;;;3.62;89.11;96819.59;109184;1294;22139;-88
2023/03/15 00:58:48;;;;;;;3.90;3.40;;;;;;;3.51;89.14;96827.67;109202;1286;22942;-88
2023/03/15 01:01:21;;;;;;;4.00;3.60;;;;;;;3.46;88.31;96830.80;109177;1293;22232;-88
2023/03/15 01:03:49;;;;;;;4.50;3.80;;;;;;;3.29;86.95;96839.13;109348;1286;23000;-87
2023/03/15 01:06:20;;;;;;;3.70;3.40;;;;;;;3.16;87.33;96850.72;109371;1293;22164;-88
2023/03/15 01:08:49;;;;;;;3.40;3.10;;;;;;;3.09;87.05;96853.00;109185;1295;22365;-87
2023/03/15 01:11:21;;;;;;;3.50;3.20;;;;;;;3.02;86.73;96858.05;109121;1295;22190;-89
2023/03/15 01:13:54;;;;;;;3.40;3.10;;;;;;;2.94;86.69;96845.31;109207;1295;22307;-86
2023/03/15 01:17:14;;;;;;;4.00;3.60;;;;;;;2.90;86.66;96843.16;109407;1295;22887;-87
2023/03/15 01:19:42;;;;;;;4.30;3.60;;;;;;;2.87;86.68;96853.87;109234;1293;22314;-90
2023/03/15 01:22:10;;;;;;;4.40;3.90;;;;;;;2.80;86.64;96857.05;109308;1293;22227;-89
2023/03/15 01:24:38;;;;;;;4.20;3.70;;;;;;;2.71;86.67;96870.02;109292;1293;22185;-89
2023/03/15 01:27:05;;;;;;;4.90;3.70;;;;;;;2.67;86.30;96865.25;109173;1293;22909;-89
2023/03/15 01:29:33;;;;;;;3.80;3.40;;;;;;;2.61;86.17;96872.23;109327;1293;22273;-88
2023/03/15 01:32:02;;;;;;;3.60;3.00;;;;;;;2.54;86.00;96870.94;109080;1293;22255;-88
2023/03/15 01:34:30;;;;;;;3.70;3.30;;;;;;;2.47;86.02;96868.36;109265;1293;22229;-86
2023/03/15 01:36:58;;;;;;;4.10;3.60;;;;;;;2.43;85.94;96884.16;109186;1287;22203;-86
2023/03/15 01:39:32;;;;;;;4.60;4.10;;;;;;;2.36;86.34;96890.41;109311;1293;23012;-85
2023/03/15 01:42:01;;;;;;;4.00;3.70;;;;;;;2.38;85.97;96893.00;109230;1293;22958;-85
2023/03/15 01:44:51;;;;;;;4.30;3.50;;;;;;;2.38;86.23;96898.70;109311;1286;22247;-87
2023/03/15 01:47:20;;;;;;;5.20;4.00;;;;;;;2.39;86.07;96909.48;109146;1294;22973;-87
2023/03/15 01:49:54;;;;;;;5.00;4.50;;;;;;;2.40;86.27;96922.95;109299;1293;22209;-86
2023/03/15 01:52:29;;;;;;;3.90;3.50;;;;;;;2.40;85.96;96931.29;109089;1294;22285;-89
2023/03/15 01:55:10;;;;;;;4.50;3.60;;;;;;;2.38;85.54;96927.89;109285;1293;22228;-87
2023/03/15 01:57:49;;;;;;;4.90;3.70;;;;;;;2.35;85.82;96941.56;109292;1293;23030;-85
2023/03/15 02:00:19;;;;;;;4.50;3.70;;;;;;;2.31;85.97;96946.19;109297;1293;22191;-87
2023/03/15 02:03:02;;;;;;;4.90;3.90;;;;;;;2.32;85.89;96946.40;109304;1293;22123;-88
2023/03/15 02:06:58;;;;;;;4.60;4.10;;;;;;;2.31;86.51;96952.73;108807;1297;22462;-89
2023/03/15 02:11:20;;;;;;;6.70;4.50;;;;;;;2.22;87.07;96951.89;108827;1297;22265;-88
2023/03/15 02:15:49;;;;;;;5.20;4.40;;;;;;;2.12;87.22;96959.34;108447;1301;22247;-89
2023/03/15 02:20:26;;;;;;;7.30;4.50;;;;;;;2.07;87.27;96971.73;107794;1307;22270;-87
2023/03/15 02:24:22;;;;;;;6.40;5.20;;;;;;;2.08;87.91;96980.18;107188;1311;22923;-88
2023/03/15 02:28:08;;;;;;;6.30;5.10;;;;;;;2.01;87.69;96982.84;106646;1319;23113;-87
2023/03/15 02:31:55;;;;;;;7.90;5.10;;;;;;;1.96;87.51;96984.38;106563;1320;22477;-88
2023/03/15 02:35:41;;;;;;;8.30;5.50;;;;;;;1.97;87.09;96982.83;106842;1317;22465;-89
2023/03/15 02:38:53;;;;;;;5.80;4.10;;;;;;;1.91;86.80;96975.39;109197;1293;22184;-88
2023/03/15 02:41:31;;;;;;;7.10;4.70;;;;;;;1.90;86.88;96964.71;109324;1292;22284;-87
2023/03/15 02:44:07;;;;;;;9.30;4.90;;;;;;;1.94;86.77;96972.47;109354;1292;23066;-87
2023/03/15 02:46:36;;;;;;;8.70;5.30;;;;;;;1.89;87.02;96978.36;109239;1294;22224;-88
2023/03/15 02:49:06;;;;;;;7.60;5.10;;;;;;;1.91;87.10;96983.31;109216;1293;23528;-86
2023/03/15 02:51:34;;;;;;;8.60;5.10;;;;;;;1.96;87.17;96980.02;109351;1293;22263;-86
2023/03/15 02:54:02;;;;;;;6.80;5.40;;;;;;;1.96;86.85;96982.90;109351;1293;22157;-86
2023/03/15 02:56:32;;;;;;;8.50;4.80;;;;;;;1.95;86.73;96992.19;109526;1293;22228;-88
2023/03/15 02:59:01;;;;;;;8.70;4.70;;;;;;;1.96;87.04;97001.16;109236;1293;22168;-87
2023/03/15 03:01:30;;;;;;;8.80;5.10;;;;;;;2.01;87.04;97000.86;109117;1293;22918;-87
2023/03/15 03:03:58;;;;;;;9.90;5.30;;;;;;;2.01;86.99;97008.40;109380;1293;22194;-87
2023/03/15 03:06:26;;;;;;;9.00;5.10;;;;;;;2.01;86.71;97013.93;109159;1293;22210;-87
2023/03/15 03:08:54;;;;;;;8.40;5.30;;;;;;;2.01;86.74;97017.54;109359;1293;22161;-85
2023/03/15 03:11:23;;;;;;;8.00;5.60;;;;;;;2.00;86.77;97020.40;109010;1295;22202;-88
2023/03/15 03:13:55;;;;;;;7.10;5.40;;;;;;;1.97;86.84;97025.18;109091;1295;22248;-87
2023/03/15 03:16:24;;;;;;;7.90;5.30;;;;;;;1.95;86.97;97023.05;109180;1293;22201;-86
2023/03/15 03:18:52;;;;;;;8.80;5.30;;;;;;;1.92;87.07;97027.84;109205;1294;22122;-86
2023/03/15 03:21:20;;;;;;;7.30;5.50;;;;;;;1.91;87.04;97039.15;109108;1284;22196;-85
2023/03/15 03:23:49;;;;;;;8.50;5.30;;;;;;;1.92;86.96;97038.25;108987;1294;23100;-86
2023/03/15 03:26:18;;;;;;;8.40;6.00;;;;;;;1.90;86.79;97045.42;108981;1294;22959;-86
2023/03/15 03:28:47;;;;;;;9.90;6.10;;;;;;;1.90;86.68;97045.95;109188;1294;22194;-88
2023/03/15 03:31:21;;;;;;;8.40;5.40;;;;;;;1.91;86.73;97050.52;109090;1289;22217;-88
2023/03/15 03:33:50;;;;;;;10.80;5.80;;;;;;;1.89;86.42;97057.79;109313;1293;22302;-86
2023/03/15 03:36:19;;;;;;;10.60;6.00;;;;;;;1.92;85.75;97058.61;109132;1294;22161;-86
2023/03/15 03:38:47;;;;;;;8.70;6.50;;;;;;;1.86;85.16;97053.70;109006;1294;22921;-86
2023/03/15 03:41:15;;;;;;;10.40;6.60;;;;;;;1.80;84.91;97054.60;109182;1293;22234;-85
2023/03/15 03:43:43;;;;;;;8.90;5.90;;;;;;;1.78;84.81;97063.23;109105;1294;23064;-85
2023/03/15 03:46:11;;;;;;;12.60;6.40;;;;;;;1.77;84.82;97070.90;108919;1294;22972;-86
2023/03/15 03:48:43;;;;;;;10.50;6.40;;;;;;;1.76;84.58;97067.76;108994;1294;22840;-85
2023/03/15 03:51:11;;;;;;;12.50;7.00;;;;;;;1.77;84.22;97069.62;109307;1293;22214;-86
2023/03/15 03:53:39;;;;;;;14.00;7.40;;;;;;;1.72;84.32;97077.58;109335;1287;22270;-86
2023/03/15 03:56:07;;;;;;;10.60;6.80;;;;;;;1.75;84.16;97077.20;109335;1272;22137;-86
2023/03/15 03:58:36;;;;;;;10.50;6.50;;;;;;;1.75;83.91;97079.50;109180;1287;22353;-84
2023/03/15 04:01:12;;;;;;;10.50;6.60;;;;;;;1.75;83.70;97074.29;109285;1293;22751;-86
2023/03/15 04:03:40;;;;;;;10.20;6.50;;;;;;;1.71;83.68;97081.61;109196;1294;22226;-85
2023/03/15 04:06:11;;;;;;;11.40;6.80;;;;;;;1.69;83.54;97083.15;109321;1293;22246;-87
2023/03/15 04:08:43;;;;;;;9.80;6.50;;;;;;;1.71;83.41;97086.30;109317;1293;22827;-86
2023/03/15 04:11:16;;;;;;;14.80;6.80;;;;;;;1.71;83.31;97089.99;109131;1287;22248;-88
2023/03/15 04:13:50;;;;;;;10.10;5.60;;;;;;;1.72;83.22;97081.83;108886;1294;22246;-86
2023/03/15 04:16:19;;;;;;;12.30;5.70;;;;;;;1.72;83.03;97079.80;109099;1294;22226;-87
2023/03/15 04:18:56;;;;;;;13.80;6.70;;;;;;;1.69;82.99;97089.73;108997;1294;22298;-87
2023/03/15 04:21:25;;;;;;;9.60;6.10;;;;;;;1.70;82.64;97093.40;109290;1293;22219;-86
2023/03/15 04:23:58;;;;;;;10.00;6.00;;;;;;;1.72;82.68;97096.05;109325;1293;22236;-87
2023/03/15 04:26:57;;;;;;;11.60;7.10;;;;;;;1.68;82.35;97099.93;109324;1293;22149;-87
2023/03/15 04:29:57;;;;;;;11.10;6.70;;;;;;;1.67;82.29;97100.19;109039;1293;22853;-88
2023/03/15 04:32:43;;;;;;;12.50;7.20;;;;;;;1.66;82.09;97102.85;109331;1293;22239;-89
2023/03/15 04:35:31;;;;;;;14.40;7.60;;;;;;;1.64;82.41;97108.88;109298;1293;22142;-87
2023/03/15 04:38:18;;;;;;;13.10;6.70;;;;;;;1.66;82.53;97109.95;109146;1291;22098;-87
2023/03/15 04:41:17;;;;;;;15.70;7.00;;;;;;;1.67;82.48;97115.11;109070;1293;22126;-86
2023/03/15 04:44:05;;;;;;;13.40;7.10;;;;;;;1.65;82.48;97113.78;109193;1293;23473;-88
2023/03/15 04:46:54;;;;;;;12.50;7.50;;;;;;;1.64;82.44;97109.73;109109;1294;22198;-86
2023/03/15 04:49:48;;;;;;;16.60;11.70;;;;;;;1.62;83.00;97110.80;108972;1294;22165;-87
2023/03/15 04:52:32;;;;;;;20.90;12.10;;;;;;;1.64;83.12;97114.89;109224;1294;22362;-88
2023/03/15 04:55:19;;;;;;;15.00;9.40;;;;;;;1.64;82.96;97115.48;109203;1293;22216;-84
2023/03/15 04:58:07;;;;;;;13.00;8.60;;;;;;;1.65;82.82;97115.59;109175;1293;22216;-88
2023/03/15 05:00:54;;;;;;;16.00;7.90;;;;;;;1.63;82.95;97125.13;109100;1295;22860;-86
2023/03/15 05:03:30;;;;;;;14.10;7.60;;;;;;;1.62;83.17;97121.20;109116;1295;22246;-89
2023/03/15 05:06:18;;;;;;;14.20;7.50;;;;;;;1.65;83.08;97120.00;109134;1290;22262;-86
2023/03/15 05:09:06;;;;;;;12.80;8.40;;;;;;;1.61;83.08;97120.77;109364;1293;22137;-87
2023/03/15 05:11:54;;;;;;;13.70;7.60;;;;;;;1.61;82.98;97132.03;109334;1288;22204;-87
2023/03/15 05:14:51;;;;;;;16.40;7.20;;;;;;;1.60;82.80;97132.73;109374;1293;22422;-86
2023/03/15 05:17:35;;;;;;;13.60;7.70;;;;;;;1.59;82.79;97138.46;109211;1293;22908;-85
2023/03/15 05:20:29;;;;;;;15.90;9.80;;;;;;;1.55;82.82;97134.77;109165;1286;22291;-84
2023/03/15 05:23:12;;;;;;;13.10;7.30;;;;;;;1.55;82.55;97151.82;108979;1294;22943;-84
2023/03/15 05:25:54;;;;;;;12.80;6.90;;;;;;;1.55;82.25;97154.95;109199;1293;22195;-84
2023/03/15 05:28:44;;;;;;;15.50;9.10;;;;;;;1.57;82.22;97164.24;108942;1294;22137;-85
2023/03/15 05:31:35;;;;;;;11.90;8.00;;;;;;;1.56;81.91;97171.96;109060;1294;22214;-84
2023/03/15 05:34:13;;;;;;;12.10;7.90;;;;;;;1.53;81.76;97178.83;109191;1294;22219;-83
2023/03/15 05:37:01;;;;;;;17.20;9.80;;;;;;;1.53;81.92;97180.54;108902;1293;22248;-85
2023/03/15 05:39:46;;;;;;;;;;;;;;;1.59;82.25;97186.88;108968;1293;22349;-84
2023/03/15 05:42:34;;;;;;;14.30;8.40;;;;;;;1.61;81.66;97188.43;109000;1294;22181;-85
2023/03/15 05:45:23;;;;;;;13.90;7.80;;;;;;;1.54;80.70;97179.90;109105;1286;22146;-87
2023/03/15 05:48:09;;;;;;;12.10;6.80;;;;;;;1.48;80.86;97183.06;109163;1294;22877;-87
2023/03/15 05:50:48;;;;;;;11.30;7.10;;;;;;;1.48;81.25;97181.10;109205;1286;22298;-85
2023/03/15 05:53:31;;;;;;;14.70;7.60;;;;;;;1.52;81.69;97185.63;108963;1294;22205;-86
2023/03/15 05:56:32;;;;;;;16.20;8.50;;;;;;;1.53;81.83;97188.66;108866;1292;22860;-85
2023/03/15 05:59:18;;;;;;;17.40;9.70;;;;;;;1.58;81.56;97197.23;109135;1289;22152;-85
2023/03/15 06:02:13;;;;;;;14.00;8.90;;;;;;;1.56;81.71;97198.98;109084;1294;22200;-87
2023/03/15 06:04:50;;;;;;;14.30;8.30;;;;;;;1.57;81.64;97203.92;109191;1294;22293;-86
2023/03/15 06:07:21;;;;;;;12.90;8.50;;;;;;;1.58;82.06;97205.67;109282;1286;22097;-87
2023/03/15 06:09:50;;;;;;;13.00;8.60;;;;;;;1.61;81.83;97210.85;109131;1293;23087;-88
2023/03/15 06:12:19;;;;;;;15.90;8.80;;;;;;;1.61;81.65;97216.05;109016;1294;22221;-87
2023/03/15 06:14:47;;;;;;;11.50;8.20;;;;;;;1.58;81.79;97226.02;108977;1294;22218;-86
2023/03/15 06:17:15;;;;;;;17.80;8.00;;;;;;;1.59;81.68;97231.77;109291;1293;22875;-88
2023/03/15 06:19:43;;;;;;;14.70;8.90;;;;;;;1.63;82.05;97246.65;109328;1293;22182;-87
2023/03/15 06:22:11;;;;;;;17.10;10.50;;;;;;;1.68;81.84;97258.58;109337;1286;22240;-84
2023/03/15 06:24:51;;;;;;;16.10;8.60;;;;;;;1.68;81.67;97265.54;109307;1293;22213;-86
2023/03/15 06:27:20;;;;;;;15.40;9.40;;;;;;;1.68;81.64;97262.72;109142;1293;22310;-86
2023/03/15 06:29:49;;;;;;;17.40;8.80;;;;;;;1.69;81.32;97264.59;109277;1293;22228;-85
2023/03/15 06:32:19;;;;;;;15.60;9.00;;;;;;;1.71;81.59;97264.02;109122;1280;22239;-88
2023/03/15 06:34:47;;;;;;;13.20;8.10;;;;;;;1.77;81.57;97269.41;109090;1294;22171;-86
2023/03/15 06:37:15;;;;;;;16.90;9.50;;;;;;;1.78;81.64;97277.38;109184;1286;22714;-86
2023/03/15 06:39:59;;;;;;;17.70;10.20;;;;;;;1.80;81.30;97294.30;109145;1293;22296;-86
2023/03/15 06:42:27;;;;;;;16.50;10.10;;;;;;;1.81;81.36;97295.27;109298;1293;23065;-87
2023/03/15 06:44:55;;;;;;;16.90;9.40;;;;;;;1.83;80.94;97297.07;109326;1293;22204;-87
2023/03/15 06:47:23;;;;;;;14.00;8.80;;;;;;;1.80;81.14;97297.80;109332;1293;22245;-84
2023/03/15 06:49:51;;;;;;;17.00;10.10;;;;;;;1.84;81.19;97307.97;109140;1293;22892;-83
2023/03/15 06:52:22;;;;;;;20.60;12.40;;;;;;;1.91;81.02;97315.98;109182;1293;22922;-85
2023/03/15 06:54:50;;;;;;;18.00;9.10;;;;;;;1.92;80.95;97324.17;109187;1293;22235;-85
2023/03/15 06:57:18;;;;;;;16.70;8.70;;;;;;;1.91;80.64;97324.37;109210;1293;22689;-85
2023/03/15 06:59:46;;;;;;;15.70;9.00;;;;;;;1.95;80.95;97323.13;109299;1279;23104;-83
2023/03/15 07:02:16;;;;;;;16.10;9.30;;;;;;;2.02;80.99;97321.09;109329;1293;22209;-85
2023/03/15 07:04:45;;;;;;;18.60;10.40;;;;;;;2.03;81.18;97323.97;109266;1286;22217;-83
2023/03/15 07:07:13;;;;;;;14.20;8.20;;;;;;;2.10;80.99;97329.91;109054;1293;22923;-84
2023/03/15 07:09:41;;;;;;;17.80;9.30;;;;;;;2.12;80.57;97335.71;109203;1294;22180;-85
2023/03/15 07:12:10;;;;;;;16.70;9.00;;;;;;;2.11;80.32;97338.78;109125;1294;22234;-87
2023/03/15 07:14:38;;;;;;;18.80;8.40;;;;;;;2.10;80.16;97335.65;109201;1294;22210;-85
2023/03/15 07:17:06;;;;;;;18.20;10.10;;;;;;;2.12;80.47;97337.39;109248;1294;22873;-86
2023/03/15 07:19:34;;;;;;;17.80;8.80;;;;;;;2.17;80.32;97334.66;109327;1293;22221;-90
2023/03/15 07:22:08;;;;;;;16.90;9.40;;;;;;;2.20;80.13;97334.05;109338;1293;22112;-85
2023/03/15 07:24:36;;;;;;;17.00;9.10;;;;;;;2.21;79.54;97342.45;109266;1293;22266;-85
2023/03/15 07:27:04;;;;;;;16.40;8.40;;;;;;;2.17;78.20;97346.42;109199;1294;22151;-87
2023/03/15 07:29:32;;;;;;;16.00;8.90;;;;;;;2.12;78.22;97340.28;109223;1294;22333;-87
2023/03/15 07:32:00;;;;;;;12.70;7.90;;;;;;;2.12;78.40;97346.83;109225;1294;22263;-86
2023/03/15 07:34:28;;;;;;;14.10;7.00;;;;;;;2.14;77.34;97347.14;109053;1294;22216;-91
2023/03/15 07:36:56;;;;;;;13.20;7.00;;;;;;;2.14;77.04;97357.52;109113;1294;22239;-86
2023/03/15 07:39:25;;;;;;;14.10;7.90;;;;;;;2.11;76.32;97349.90;109268;1293;22216;-87
2023/03/15 07:41:53;;;;;;;16.60;7.40;;;;;;;2.06;76.12;97351.77;109380;1293;22223;-89
2023/03/15 07:44:30;;;;;;;12.70;6.80;;;;;;;2.01;76.06;97348.71;109561;1293;22304;-88
2023/03/15 07:46:58;;;;;;;12.70;6.70;;;;;;;2.06;76.16;97351.52;109548;1293;22219;-91
2023/03/15 07:49:26;;;;;;;15.00;7.40;;;;;;;2.13;76.10;97350.23;109420;1293;22195;-92
2023/03/15 07:51:54;;;;;;;16.90;8.90;;;;;;;2.22;76.26;97355.37;109634;1293;22307;-92
2023/03/15 07:54:22;;;;;;;15.80;8.10;;;;;;;2.26;76.07;97365.77;109516;1293;22221;-90
2023/03/15 08:00:33;;;;;;;15.50;9.10;;;;;;;2.43;76.55;97376.27;109618;1294;22128;-90
2023/03/15 08:03:01;;;;;;;19.10;8.90;;;;;;;2.46;76.09;97381.77;109393;1294;22281;-90
2023/03/15 08:05:29;;;;;;;13.60;6.70;;;;;;;2.48;76.23;97388.05;109268;1294;22101;-86
2023/03/15 08:07:57;;;;;;;18.20;8.00;;;;;;;2.53;75.94;97390.63;109212;1294;22199;-89
2023/03/15 08:10:26;;;;;;;15.10;7.00;;;;;;;2.56;75.28;97392.23;109272;1287;22190;-84
2023/03/15 08:12:54;;;;;;;15.70;7.00;;;;;;;2.59;74.86;97391.29;109187;1279;22281;-85
2023/03/15 08:15:22;;;;;;;15.70;6.70;;;;;;;2.61;73.36;97392.42;109253;1294;22261;-88
2023/03/15 08:17:50;;;;;;;11.80;6.60;;;;;;;2.59;72.47;97394.65;109234;1282;22158;-90
2023/03/15 08:20:18;;;;;;;15.40;6.80;;;;;;;2.60;72.58;97396.25;109165;1294;22265;-87
2023/03/15 08:22:47;;;;;;;12.90;6.30;;;;;;;2.60;72.10;97402.00;109204;1294;22286;-89
2023/03/15 08:25:22;;;;;;;15.50;6.70;;;;;;;2.60;71.15;97408.73;109224;1293;22720;-84
2023/03/15 08:27:52;;;;;;;12.70;6.30;;;;;;;2.53;70.76;97414.30;109284;1293;22139;-89
2023/03/15 08:30:21;;;;;;;15.40;6.60;;;;;;;2.50;70.50;97417.95;109222;1294;22276;-87
2023/03/15 08:32:51;;;;;;;13.70;6.60;;;;;;;2.47;70.87;97415.45;109203;1291;22977;-89
2023/03/15 08:35:20;;;;;;;14.80;6.30;;;;;;;2.52;70.98;97419.08;109230;1293;22159;-88
2023/03/15 08:37:51;;;;;;;11.60;6.40;;;;;;;2.56;70.33;97428.68;109267;1293;22202;-87
2023/03/15 08:40:22;;;;;;;14.80;7.00;;;;;;;2.57;70.13;97433.00;109275;1293;22194;-85
2023/03/15 08:42:52;;;;;;;14.90;7.20;;;;;;;2.58;70.12;97431.55;109365;1293;22267;-87
2023/03/15 08:45:26;;;;;;;16.60;7.00;;;;;;;2.63;70.79;97439.84;109263;1270;22428;31
2023/03/15 08:47:58;;;;;;;14.60;7.00;;;;;;;2.70;70.01;97436.88;109066;1271;22193;-86
2023/03/15 08:50:30;;;;;;;14.70;6.80;;;;;;;2.78;70.64;97438.88;109316;1292;22287;-85
2023/03/15 08:53:19;;;;;;;15.60;6.30;;;;;;;2.85;69.50;97451.05;109481;1269;22641;31
2023/03/15 08:55:50;;;;;;;12.70;7.30;;;;;;;2.85;68.52;97443.39;109527;1292;22855;-85
2023/03/15 08:58:18;;;;;;;13.60;6.70;;;;;;;2.88;68.77;97450.42;109453;1292;23532;-84
2023/03/15 09:00:48;;;;;;;8.60;5.60;;;;;;;2.94;67.64;97450.51;109472;1291;22240;-84
2023/03/15 09:03:18;;;;;;;12.40;6.20;;;;;;;2.91;67.55;97447.52;109532;1277;22240;-86
2023/03/15 09:05:46;;;;;;;14.30;7.10;;;;;;;2.93;67.59;97446.56;109350;1292;22187;-87
2023/03/15 09:08:15;;;;;;;13.00;7.80;;;;;;;3.00;68.01;97449.68;109271;1292;22176;-87
2023/03/15 09:10:43;;;;;;;14.30;6.30;;;;;;;3.08;67.65;97456.31;109277;1293;23114;-89
2023/03/15 09:13:12;;;;;;;16.80;7.50;;;;;;;3.11;67.80;97454.77;109369;1293;22196;-90
2023/03/15 09:15:40;;;;;;;13.60;7.50;;;;;;;3.12;67.88;97448.49;109338;1271;22165;-93
2023/03/15 09:18:08;;;;;;;14.50;7.80;;;;;;;3.12;67.18;97464.83;109249;1292;22787;-91
2023/03/15 09:20:38;;;;;;;11.70;5.80;;;;;;;3.09;66.78;97462.86;109030;1292;22220;-88
2023/03/15 09:23:06;;;;;;;10.80;6.90;;;;;;;3.13;66.60;97469.63;109516;1292;22988;-91
2023/03/15 09:25:35;;;;;;;12.60;6.40;;;;;;;3.09;66.26;97466.58;109556;1292;22219;-89
2023/03/15 09:28:07;;;;;;;12.70;6.20;;;;;;;3.08;66.58;97469.13;109500;1292;23214;-88
2023/03/15 09:30:37;;;;;;;12.60;6.50;;;;;;;3.14;67.06;97468.30;109548;1270;23540;-89
2023/03/15 09:33:06;;;;;;;12.40;6.60;;;;;;;3.22;66.16;97466.47;109730;1292;22228;-90
2023/03/15 09:35:34;;;;;;;11.00;6.30;;;;;;;3.26;65.92;97469.58;109506;1292;22998;-87
2023/03/15 09:38:03;;;;;;;10.30;6.00;;;;;;;3.28;65.09;97474.21;109393;1292;22210;-89
2023/03/15 09:40:37;;;;;;;10.20;5.60;;;;;;;3.24;64.02;97475.85;109406;1292;22219;-88
2023/03/15 09:43:05;;;;;;;;;;;;;;;3.14;63.77;97475.66;109434;1292;22317;-87
2023/03/15 09:45:47;;;;;;;12.10;6.50;;;;;;;3.07;64.22;97472.33;109396;1292;22199;-87
2023/03/15 09:48:24;;;;;;;11.20;5.60;;;;;;;3.14;63.97;97480.66;109382;1293;22929;-86
2023/03/15 09:51:00;;;;;;;13.50;6.60;;;;;;;3.16;63.70;97476.73;109370;1293;22418;-89
2023/03/15 09:53:28;;;;;;;11.10;6.20;;;;;;;3.15;62.85;97474.17;109420;1293;22963;-90
2023/03/15 09:55:57;;;;;;;11.50;6.30;;;;;;;3.11;63.24;97473.63;109384;1286;22265;-89
2023/03/15 09:58:34;;;;;;;12.80;5.90;;;;;;;3.10;63.60;97472.98;109288;1280;22432;-87
2023/03/15 10:01:06;;;;;;;12.00;6.00;;;;;;;3.17;62.73;97471.41;109322;1293;22283;-83
2023/03/15 10:03:43;;;;;;;11.50;6.40;;;;;;;3.16;63.00;97485.73;109203;1293;22926;-84
2023/03/15 10:06:27;;;;;;;10.60;5.50;;;;;;;3.16;61.94;97487.00;109207;1294;22689;-83
2023/03/15 10:09:03;;;;;;;10.00;5.50;;;;;;;3.11;62.42;97497.10;109190;1292;22161;-84
2023/03/15 10:12:01;;;;;;;10.90;5.50;;;;;;;3.12;62.68;97500.46;109194;1293;22929;-83
2023/03/15 10:15:07;;;;;;;13.00;5.80;;;;;;;3.14;63.00;97496.54;109418;1293;22179;-85
2023/03/15 10:17:47;;;;;;;11.80;5.90;;;;;;;3.14;62.05;97510.42;109409;1293;22117;-84
2023/03/15 10:20:26;;;;;;;11.40;5.60;;;;;;;3.08;62.41;97508.33;109373;1293;22161;-84
2023/03/15 10:23:18;;;;;;;13.60;6.50;;;;;;;3.11;63.21;97506.48;109381;1293;22137;-85
2023/03/15 10:25:49;;;;;;;10.00;5.90;;;;;;;3.13;62.51;97508.50;109117;1293;22305;-83
2023/03/15 10:28:18;;;;;;;9.10;5.50;;;;;;;3.15;62.40;97511.29;109440;1293;22215;-85
2023/03/15 10:30:49;;;;;;;9.30;5.30;;;;;;;3.17;61.97;97520.02;109414;1292;22232;-86
2023/03/15 10:33:28;;;;;;;10.80;6.30;;;;;;;3.18;62.13;97516.51;109328;1292;22228;-86
2023/03/15 10:35:56;;;;;;;11.90;6.10;;;;;;;3.26;62.19;97515.73;109451;1286;22922;-86
2023/03/15 10:38:40;;;;;;;11.40;6.00;;;;;;;3.29;61.74;97511.16;109515;1284;22128;-85
2023/03/15 10:41:13;;;;;;;9.50;6.00;;;;;;;3.31;61.38;97523.43;109488;1292;22139;-88
2023/03/15 10:44:03;;;;;;;10.10;7.00;;;;;;;3.24;60.45;97511.38;109796;1292;22205;-86
2023/03/15 10:46:34;;;;;;;10.90;5.30;;;;;;;3.29;61.40;97514.73;109703;1292;22138;-85
2023/03/15 10:49:11;;;;;;;9.90;5.50;;;;;;;3.35;61.60;97525.36;109682;1292;22188;-88
2023/03/15 10:51:46;;;;;;;11.00;5.70;;;;;;;3.44;60.94;97520.81;109714;1293;22177;-86
2023/03/15 10:54:17;;;;;;;9.60;6.00;;;;;;;3.47;61.04;97521.41;109614;1293;22240;-86
2023/03/15 10:57:13;;;;;;;8.20;5.60;;;;;;;3.49;60.15;97524.83;109459;1293;22259;-86
2023/03/15 10:59:59;;;;;;;9.50;5.20;;;;;;;3.51;59.96;97517.95;109360;1287;22837;-86
2023/03/15 11:02:27;;;;;;;9.20;5.60;;;;;;;3.53;59.62;97524.52;109370;1293;22151;-88
2023/03/15 11:05:08;;;;;;;8.90;4.90;;;;;;;3.54;60.07;97519.30;109432;1292;22225;-82
2023/03/15 11:07:36;;;;;;;10.90;5.60;;;;;;;3.62;60.10;97525.13;109263;1292;22248;-84
2023/03/15 11:10:05;;;;;;;8.50;5.10;;;;;;;3.70;59.80;97523.34;109464;1292;22096;-85
2023/03/15 11:12:34;;;;;;;11.10;4.90;;;;;;;3.72;59.02;97528.23;109461;1292;22231;-85
2023/03/15 11:15:18;;;;;;;8.90;5.50;;;;;;;3.70;59.04;97529.36;109439;1292;22200;-84
2023/03/15 11:17:48;;;;;;;11.20;6.80;;;;;;;3.73;59.66;97528.46;108987;1293;22270;-87
2023/03/15 11:20:17;;;;;;;11.70;5.30;;;;;;;3.84;59.03;97523.20;109414;1292;22156;-88
2023/03/15 11:22:45;;;;;;;9.10;5.20;;;;;;;3.85;58.41;97525.70;109427;1292;22175;-86
2023/03/15 11:25:15;;;;;;;9.90;4.90;;;;;;;3.86;58.98;97519.70;109446;1292;22153;-87
2023/03/15 11:27:49;;;;;;;11.00;5.90;;;;;;;3.94;59.26;97517.41;109420;1292;22209;-87
2023/03/15 11:30:22;;;;;;;12.40;7.00;;;;;;;4.05;59.26;97514.17;109433;1292;22235;-84
2023/03/15 11:32:51;;;;;;;10.70;6.20;;;;;;;4.17;58.41;97508.41;109444;1276;22263;-85
2023/03/15 11:35:31;;;;;;;8.00;4.80;;;;;;;4.20;57.81;97520.80;109193;1292;22184;-87
2023/03/15 11:38:04;;;;;;;8.40;4.70;;;;;;;4.20;56.01;97517.38;109451;1292;22226;-85
2023/03/15 11:40:46;;;;;;;7.70;4.20;;;;;;;4.09;54.47;97527.55;109050;1293;22229;-87
2023/03/15 11:43:21;;;;;;;8.70;4.50;;;;;;;4.02;54.53;97525.15;109209;1293;22189;-88
2023/03/15 11:45:54;;;;;;;7.30;4.20;;;;;;;4.03;55.71;97518.96;109330;1286;22211;-87
2023/03/15 11:48:59;;;;;;;10.10;4.40;;;;;;;4.03;54.17;97518.42;109295;1293;22203;-88
2023/03/15 11:51:38;;;;;;;9.90;5.20;;;;;;;3.99;54.37;97523.02;109350;1293;22302;-84
2023/03/15 11:54:14;;;;;;;8.50;4.90;;;;;;;3.98;54.76;97522.64;109222;1291;22296;-91
2023/03/15 11:56:42;;;;;;;8.00;4.70;;;;;;;3.98;53.68;97528.61;109206;1292;22605;-85
2023/03/15 11:59:16;;;;;;;8.20;4.80;;;;;;;3.93;52.96;97530.95;109466;1292;22910;-84
2023/03/15 12:01:57;;;;;;;6.70;4.10;;;;;;;3.91;53.60;97535.57;109338;1292;22006;-85
2023/03/15 12:04:31;;;;;;;7.00;4.50;;;;;;;3.85;53.00;97531.69;109217;1293;22213;-84
2023/03/15 12:07:06;;;;;;;10.10;5.10;;;;;;;3.80;53.39;97530.23;109356;1293;22248;-86
2023/03/15 12:09:37;;;;;;;12.10;5.70;;;;;;;3.85;54.84;97528.01;109190;1286;22335;-84
2023/03/15 12:12:25;;;;;;;9.80;5.30;;;;;;;3.98;54.59;97533.20;109357;1293;22211;-84
2023/03/15 12:15:38;;;;;;;7.60;4.80;;;;;;;4.08;54.44;97532.56;109322;1289;23011;-82